sensor_id;sensor_type;location;lat;lon;timestamp;temperature;humidity
41324;DHT22;27073;51.128;4.220;2023-06-14T00:01:50;24.60;99.90
41324;DHT22;27073;51.128;4.220;2023-06-14T00:04:16;24.50;99.90
41324;DHT22;27073;51.128;4.220;2023-06-14T00:06:43;24.50;99.90
41324;DHT22;27073;51.128;4.220;2023-06-14T00:09:11;24.40;99.90
41324;DHT22;27073;51.128;4.220;2023-06-14T00:11:39;24.50;99.90
41324;DHT22;27073;51.128;4.220;2023-06-14T00:14:05;24.40;99.90
41324;DHT22;27073;51.128;4.220;2023-06-14T00:16:31;24.40;99.90
41324;DHT22;27073;51.128;4.220;2023-06-14T00:18:58;24.20;15.00
41324;DHT22;27073;51.128;4.220;2023-06-14T00:21:25;24.30;99.90
41324;DHT22;27073;51.128;4.220;2023-06-14T00:23:50;24.30;56.00
41324;DHT22;27073;51.128;4.220;2023-06-14T00:26:16;24.20;75.20
41324;DHT22;27073;51.128;4.220;2023-06-14T00:28:43;24.30;1.00
41324;DHT22;27073;51.128;4.220;2023-06-14T00:31:11;24.20;1.00
41324;DHT22;27073;51.128;4.220;2023-06-14T00:33:37;24.20;99.90
41324;DHT22;27073;51.128;4.220;2023-06-14T00:36:04;24.20;99.90
41324;DHT22;27073;51.128;4.220;2023-06-14T00:38:30;24.30;99.90
41324;DHT22;27073;51.128;4.220;2023-06-14T00:40:55;24.10;99.90
41324;DHT22;27073;51.128;4.220;2023-06-14T00:43:21;23.90;1.00
41324;DHT22;27073;51.128;4.220;2023-06-14T00:45:47;23.90;8.30
41324;DHT22;27073;51.128;4.220;2023-06-14T00:48:15;23.80;99.90
41324;DHT22;27073;51.128;4.220;2023-06-14T00:50:42;23.80;16.30
41324;DHT22;27073;51.128;4.220;2023-06-14T00:53:12;23.70;26.30
41324;DHT22;27073;51.128;4.220;2023-06-14T00:55:38;23.80;29.80
41324;DHT22;27073;51.128;4.220;2023-06-14T00:58:03;23.80;78.70
41324;DHT22;27073;51.128;4.220;2023-06-14T01:00:29;23.70;1.00
41324;DHT22;27073;51.128;4.220;2023-06-14T01:02:55;23.70;6.90
41324;DHT22;27073;51.128;4.220;2023-06-14T01:05:22;23.70;24.20
41324;DHT22;27073;51.128;4.220;2023-06-14T01:11:27;23.70;1.00
41324;DHT22;27073;51.128;4.220;2023-06-14T01:13:54;23.60;1.00
41324;DHT22;27073;51.128;4.220;2023-06-14T01:16:21;23.70;99.90
41324;DHT22;27073;51.128;4.220;2023-06-14T01:18:47;23.60;99.90
41324;DHT22;27073;51.128;4.220;2023-06-14T01:21:23;23.60;99.20
41324;DHT22;27073;51.128;4.220;2023-06-14T01:23:50;23.50;39.50
41324;DHT22;27073;51.128;4.220;2023-06-14T01:26:21;23.60;1.00
41324;DHT22;27073;51.128;4.220;2023-06-14T01:28:47;23.60;1.00
41324;DHT22;27073;51.128;4.220;2023-06-14T01:31:17;23.40;1.00
41324;DHT22;27073;51.128;4.220;2023-06-14T01:33:45;23.40;1.00
41324;DHT22;27073;51.128;4.220;2023-06-14T01:36:11;23.30;1.00
41324;DHT22;27073;51.128;4.220;2023-06-14T01:38:38;23.30;40.20
41324;DHT22;27073;51.128;4.220;2023-06-14T01:41:04;23.30;39.30
41324;DHT22;27073;51.128;4.220;2023-06-14T01:43:31;23.30;1.00
41324;DHT22;27073;51.128;4.220;2023-06-14T01:45:58;23.30;99.90
41324;DHT22;27073;51.128;4.220;2023-06-14T01:48:28;23.20;99.90
41324;DHT22;27073;51.128;4.220;2023-06-14T01:50:54;23.10;99.90
41324;DHT22;27073;51.128;4.220;2023-06-14T01:53:19;23.20;99.90
41324;DHT22;27073;51.128;4.220;2023-06-14T01:55:46;23.10;99.90
41324;DHT22;27073;51.128;4.220;2023-06-14T01:58:15;23.10;99.90
41324;DHT22;27073;51.128;4.220;2023-06-14T02:00:42;23.00;1.00
41324;DHT22;27073;51.128;4.220;2023-06-14T02:03:09;23.00;99.90
41324;DHT22;27073;51.128;4.220;2023-06-14T02:05:35;23.00;1.00
41324;DHT22;27073;51.128;4.220;2023-06-14T02:08:01;22.90;99.90
41324;DHT22;27073;51.128;4.220;2023-06-14T02:10:26;22.80;99.90
41324;DHT22;27073;51.128;4.220;2023-06-14T02:12:54;22.90;99.90
41324;DHT22;27073;51.128;4.220;2023-06-14T02:15:20;22.80;99.90
41324;DHT22;27073;51.128;4.220;2023-06-14T02:17:47;22.80;99.90
41324;DHT22;27073;51.128;4.220;2023-06-14T02:20:16;22.70;99.90
41324;DHT22;27073;51.128;4.220;2023-06-14T02:22:42;22.70;95.40
41324;DHT22;27073;51.128;4.220;2023-06-14T02:25:08;22.80;83.40
41324;DHT22;27073;51.128;4.220;2023-06-14T02:27:34;22.70;36.40
41324;DHT22;27073;51.128;4.220;2023-06-14T02:30:00;22.70;1.00
41324;DHT22;27073;51.128;4.220;2023-06-14T02:32:26;22.60;1.00
41324;DHT22;27073;51.128;4.220;2023-06-14T02:34:53;22.60;1.00
41324;DHT22;27073;51.128;4.220;2023-06-14T02:37:19;22.50;20.00
41324;DHT22;27073;51.128;4.220;2023-06-14T02:39:45;22.50;26.10
41324;DHT22;27073;51.128;4.220;2023-06-14T02:42:11;22.40;1.70
41324;DHT22;27073;51.128;4.220;2023-06-14T02:44:37;22.40;1.00
41324;DHT22;27073;51.128;4.220;2023-06-14T02:47:03;22.50;99.90
41324;DHT22;27073;51.128;4.220;2023-06-14T02:49:32;22.50;99.90
41324;DHT22;27073;51.128;4.220;2023-06-14T02:51:58;22.40;99.90
41324;DHT22;27073;51.128;4.220;2023-06-14T02:54:24;22.50;99.90
41324;DHT22;27073;51.128;4.220;2023-06-14T02:56:50;22.30;99.90
41324;DHT22;27073;51.128;4.220;2023-06-14T02:59:16;22.30;99.90
41324;DHT22;27073;51.128;4.220;2023-06-14T03:01:42;22.20;99.90
41324;DHT22;27073;51.128;4.220;2023-06-14T03:04:11;22.30;99.90
41324;DHT22;27073;51.128;4.220;2023-06-14T03:06:39;22.30;99.90
41324;DHT22;27073;51.128;4.220;2023-06-14T03:09:08;22.30;99.90
41324;DHT22;27073;51.128;4.220;2023-06-14T03:11:36;22.30;99.90
41324;DHT22;27073;51.128;4.220;2023-06-14T03:14:03;22.30;99.90
41324;DHT22;27073;51.128;4.220;2023-06-14T03:16:29;22.40;99.90
41324;DHT22;27073;51.128;4.220;2023-06-14T03:18:57;22.40;99.90
41324;DHT22;27073;51.128;4.220;2023-06-14T03:21:25;22.40;99.90
41324;DHT22;27073;51.128;4.220;2023-06-14T03:23:57;22.30;99.90
41324;DHT22;27073;51.128;4.220;2023-06-14T03:26:24;22.30;95.40
41324;DHT22;27073;51.128;4.220;2023-06-14T03:28:52;22.30;99.90
41324;DHT22;27073;51.128;4.220;2023-06-14T03:31:19;22.20;99.90
41324;DHT22;27073;51.128;4.220;2023-06-14T03:33:45;22.30;77.00
41324;DHT22;27073;51.128;4.220;2023-06-14T03:36:12;22.30;92.90
41324;DHT22;27073;51.128;4.220;2023-06-14T03:38:37;22.20;99.90
41324;DHT22;27073;51.128;4.220;2023-06-14T03:41:04;22.20;99.90
41324;DHT22;27073;51.128;4.220;2023-06-14T03:43:31;22.10;99.90
41324;DHT22;27073;51.128;4.220;2023-06-14T03:45:57;22.10;99.90
41324;DHT22;27073;51.128;4.220;2023-06-14T03:48:24;22.20;99.90
41324;DHT22;27073;51.128;4.220;2023-06-14T03:50:51;22.10;99.90
41324;DHT22;27073;51.128;4.220;2023-06-14T03:53:16;21.90;99.90
41324;DHT22;27073;51.128;4.220;2023-06-14T03:55:47;21.80;99.90
41324;DHT22;27073;51.128;4.220;2023-06-14T03:58:15;21.80;99.90
41324;DHT22;27073;51.128;4.220;2023-06-14T04:00:41;21.70;99.90
41324;DHT22;27073;51.128;4.220;2023-06-14T04:03:07;21.70;99.90
41324;DHT22;27073;51.128;4.220;2023-06-14T04:05:32;21.80;99.90
41324;DHT22;27073;51.128;4.220;2023-06-14T04:07:58;21.80;99.90
41324;DHT22;27073;51.128;4.220;2023-06-14T04:10:24;21.80;1.00
41324;DHT22;27073;51.128;4.220;2023-06-14T04:12:50;21.80;99.90
41324;DHT22;27073;51.128;4.220;2023-06-14T04:15:17;21.80;99.90
41324;DHT22;27073;51.128;4.220;2023-06-14T04:17:43;21.80;99.90
41324;DHT22;27073;51.128;4.220;2023-06-14T04:20:09;21.80;99.90
41324;DHT22;27073;51.128;4.220;2023-06-14T04:22:36;21.90;99.90
41324;DHT22;27073;51.128;4.220;2023-06-14T04:25:04;21.90;99.90
41324;DHT22;27073;51.128;4.220;2023-06-14T04:27:32;21.80;99.90
41324;DHT22;27073;51.128;4.220;2023-06-14T04:30:02;21.80;99.90
41324;DHT22;27073;51.128;4.220;2023-06-14T04:32:35;21.90;99.90
41324;DHT22;27073;51.128;4.220;2023-06-14T04:35:08;21.90;1.00
41324;DHT22;27073;51.128;4.220;2023-06-14T04:37:36;21.90;61.60
41324;DHT22;27073;51.128;4.220;2023-06-14T04:40:10;21.90;91.40
41324;DHT22;27073;51.128;4.220;2023-06-14T04:42:37;21.70;99.90
41324;DHT22;27073;51.128;4.220;2023-06-14T04:45:06;21.80;99.90
41324;DHT22;27073;51.128;4.220;2023-06-14T04:47:32;21.70;99.90
41324;DHT22;27073;51.128;4.220;2023-06-14T04:50:00;21.80;99.90
41324;DHT22;27073;51.128;4.220;2023-06-14T04:52:28;21.90;99.90
41324;DHT22;27073;51.128;4.220;2023-06-14T04:54:55;21.80;99.90
41324;DHT22;27073;51.128;4.220;2023-06-14T04:57:22;21.80;1.00
41324;DHT22;27073;51.128;4.220;2023-06-14T04:59:52;21.80;1.00
41324;DHT22;27073;51.128;4.220;2023-06-14T05:02:24;21.80;99.90
41324;DHT22;27073;51.128;4.220;2023-06-14T05:04:51;21.70;99.90
41324;DHT22;27073;51.128;4.220;2023-06-14T05:07:18;21.60;17.70
41324;DHT22;27073;51.128;4.220;2023-06-14T05:09:44;21.70;99.90
41324;DHT22;27073;51.128;4.220;2023-06-14T05:12:12;21.70;99.90
41324;DHT22;27073;51.128;4.220;2023-06-14T05:14:37;21.80;1.00
41324;DHT22;27073;51.128;4.220;2023-06-14T05:17:05;21.80;99.90
41324;DHT22;27073;51.128;4.220;2023-06-14T05:19:31;21.90;99.90
41324;DHT22;27073;51.128;4.220;2023-06-14T05:21:57;22.10;99.90
41324;DHT22;27073;51.128;4.220;2023-06-14T05:24:22;22.10;99.90
41324;DHT22;27073;51.128;4.220;2023-06-14T05:26:48;22.10;99.90
41324;DHT22;27073;51.128;4.220;2023-06-14T05:29:14;22.10;99.90
41324;DHT22;27073;51.128;4.220;2023-06-14T05:31:40;22.10;99.90
41324;DHT22;27073;51.128;4.220;2023-06-14T05:34:06;22.10;99.90
41324;DHT22;27073;51.128;4.220;2023-06-14T05:36:31;22.20;35.90
41324;DHT22;27073;51.128;4.220;2023-06-14T05:38:57;22.20;99.90
41324;DHT22;27073;51.128;4.220;2023-06-14T05:41:28;22.40;99.90
41324;DHT22;27073;51.128;4.220;2023-06-14T05:43:55;22.40;99.90
41324;DHT22;27073;51.128;4.220;2023-06-14T05:46:21;22.60;1.00
41324;DHT22;27073;51.128;4.220;2023-06-14T05:48:50;22.60;99.90
41324;DHT22;27073;51.128;4.220;2023-06-14T05:51:16;22.70;99.90
41324;DHT22;27073;51.128;4.220;2023-06-14T05:53:50;22.80;99.90
41324;DHT22;27073;51.128;4.220;2023-06-14T05:56:18;22.80;99.90
41324;DHT22;27073;51.128;4.220;2023-06-14T05:58:44;22.60;99.90
41324;DHT22;27073;51.128;4.220;2023-06-14T06:01:10;22.70;99.90
41324;DHT22;27073;51.128;4.220;2023-06-14T06:03:36;22.80;99.90
41324;DHT22;27073;51.128;4.220;2023-06-14T06:06:02;22.90;99.90
41324;DHT22;27073;51.128;4.220;2023-06-14T06:08:29;22.80;99.90
41324;DHT22;27073;51.128;4.220;2023-06-14T06:10:55;22.80;99.90
41324;DHT22;27073;51.128;4.220;2023-06-14T06:13:21;23.00;99.90
41324;DHT22;27073;51.128;4.220;2023-06-14T06:15:47;23.10;99.90
41324;DHT22;27073;51.128;4.220;2023-06-14T06:18:12;23.10;99.90
41324;DHT22;27073;51.128;4.220;2023-06-14T06:20:38;23.00;1.00
41324;DHT22;27073;51.128;4.220;2023-06-14T06:23:04;23.00;73.20
41324;DHT22;27073;51.128;4.220;2023-06-14T06:25:29;22.90;93.60
41324;DHT22;27073;51.128;4.220;2023-06-14T06:27:57;22.80;12.80
41324;DHT22;27073;51.128;4.220;2023-06-14T06:30:23;22.80;84.70
41324;DHT22;27073;51.128;4.220;2023-06-14T06:32:50;22.90;99.90
41324;DHT22;27073;51.128;4.220;2023-06-14T06:35:16;22.80;99.90
41324;DHT22;27073;51.128;4.220;2023-06-14T06:37:42;22.90;1.00
41324;DHT22;27073;51.128;4.220;2023-06-14T06:40:08;23.10;28.90
41324;DHT22;27073;51.128;4.220;2023-06-14T06:42:35;23.20;1.00
41324;DHT22;27073;51.128;4.220;2023-06-14T06:45:04;23.30;1.00
41324;DHT22;27073;51.128;4.220;2023-06-14T06:47:30;23.40;1.00
41324;DHT22;27073;51.128;4.220;2023-06-14T06:49:55;23.20;99.90
41324;DHT22;27073;51.128;4.220;2023-06-14T06:52:21;23.30;1.00
41324;DHT22;27073;51.128;4.220;2023-06-14T06:54:47;23.40;1.00
41324;DHT22;27073;51.128;4.220;2023-06-14T06:57:12;23.60;99.90
41324;DHT22;27073;51.128;4.220;2023-06-14T06:59:39;23.60;99.90
41324;DHT22;27073;51.128;4.220;2023-06-14T07:02:05;23.50;99.90
41324;DHT22;27073;51.128;4.220;2023-06-14T07:04:31;23.60;99.90
41324;DHT22;27073;51.128;4.220;2023-06-14T07:06:57;23.50;99.90
41324;DHT22;27073;51.128;4.220;2023-06-14T07:09:22;23.40;99.90
41324;DHT22;27073;51.128;4.220;2023-06-14T07:11:50;23.50;99.90
41324;DHT22;27073;51.128;4.220;2023-06-14T07:14:16;23.70;1.00
41324;DHT22;27073;51.128;4.220;2023-06-14T07:16:41;23.90;1.00
41324;DHT22;27073;51.128;4.220;2023-06-14T07:19:08;23.90;99.90
41324;DHT22;27073;51.128;4.220;2023-06-14T07:21:35;24.10;99.90
41324;DHT22;27073;51.128;4.220;2023-06-14T07:24:05;24.10;1.00
41324;DHT22;27073;51.128;4.220;2023-06-14T07:26:32;24.10;99.90
41324;DHT22;27073;51.128;4.220;2023-06-14T07:28:58;24.20;99.90
41324;DHT22;27073;51.128;4.220;2023-06-14T07:31:23;24.20;99.90
41324;DHT22;27073;51.128;4.220;2023-06-14T07:33:49;24.20;99.90
41324;DHT22;27073;51.128;4.220;2023-06-14T07:36:15;24.20;99.90
41324;DHT22;27073;51.128;4.220;2023-06-14T07:38:40;24.20;99.90
41324;DHT22;27073;51.128;4.220;2023-06-14T07:41:07;24.20;99.90
41324;DHT22;27073;51.128;4.220;2023-06-14T07:43:33;24.30;99.90
41324;DHT22;27073;51.128;4.220;2023-06-14T07:45:59;24.30;99.90
41324;DHT22;27073;51.128;4.220;2023-06-14T07:48:25;24.30;99.90
41324;DHT22;27073;51.128;4.220;2023-06-14T07:50:50;24.50;99.90
41324;DHT22;27073;51.128;4.220;2023-06-14T07:53:16;24.40;99.90
41324;DHT22;27073;51.128;4.220;2023-06-14T07:55:42;24.50;99.90
41324;DHT22;27073;51.128;4.220;2023-06-14T07:58:08;24.50;99.90
41324;DHT22;27073;51.128;4.220;2023-06-14T08:00:34;24.60;93.30
41324;DHT22;27073;51.128;4.220;2023-06-14T08:03:00;24.60;99.90
41324;DHT22;27073;51.128;4.220;2023-06-14T08:05:26;24.60;93.70
41324;DHT22;27073;51.128;4.220;2023-06-14T08:07:52;24.60;70.90
41324;DHT22;27073;51.128;4.220;2023-06-14T08:10:18;24.70;30.30
41324;DHT22;27073;51.128;4.220;2023-06-14T08:12:44;24.60;22.30
41324;DHT22;27073;51.128;4.220;2023-06-14T08:15:10;24.70;20.30
41324;DHT22;27073;51.128;4.220;2023-06-14T08:17:35;24.80;13.60
41324;DHT22;27073;51.128;4.220;2023-06-14T08:20:02;24.80;15.00
41324;DHT22;27073;51.128;4.220;2023-06-14T08:22:29;24.80;5.30
41324;DHT22;27073;51.128;4.220;2023-06-14T08:24:58;24.90;1.00
41324;DHT22;27073;51.128;4.220;2023-06-14T08:27:23;24.80;1.00
41324;DHT22;27073;51.128;4.220;2023-06-14T08:29:49;25.00;1.00
41324;DHT22;27073;51.128;4.220;2023-06-14T08:32:15;25.00;99.90
41324;DHT22;27073;51.128;4.220;2023-06-14T08:34:41;25.00;1.00
41324;DHT22;27073;51.128;4.220;2023-06-14T08:37:07;25.10;1.00
41324;DHT22;27073;51.128;4.220;2023-06-14T08:39:33;25.10;99.90
41324;DHT22;27073;51.128;4.220;2023-06-14T08:42:01;25.20;99.90
41324;DHT22;27073;51.128;4.220;2023-06-14T08:44:28;25.10;99.90
41324;DHT22;27073;51.128;4.220;2023-06-14T08:46:55;25.10;99.90
41324;DHT22;27073;51.128;4.220;2023-06-14T08:49:23;25.10;99.90
41324;DHT22;27073;51.128;4.220;2023-06-14T08:51:57;25.10;1.00
41324;DHT22;27073;51.128;4.220;2023-06-14T08:54:25;25.00;1.00
41324;DHT22;27073;51.128;4.220;2023-06-14T08:56:53;25.20;1.00
41324;DHT22;27073;51.128;4.220;2023-06-14T08:59:24;25.30;1.00
41324;DHT22;27073;51.128;4.220;2023-06-14T09:01:51;25.40;1.00
41324;DHT22;27073;51.128;4.220;2023-06-14T09:04:18;25.50;99.90
41324;DHT22;27073;51.128;4.220;2023-06-14T09:06:45;25.50;1.00
41324;DHT22;27073;51.128;4.220;2023-06-14T09:09:11;25.50;99.90
41324;DHT22;27073;51.128;4.220;2023-06-14T09:11:37;25.40;99.90
41324;DHT22;27073;51.128;4.220;2023-06-14T09:14:03;25.40;99.90
41324;DHT22;27073;51.128;4.220;2023-06-14T09:16:32;25.30;99.90
41324;DHT22;27073;51.128;4.220;2023-06-14T09:18:58;25.40;99.90
41324;DHT22;27073;51.128;4.220;2023-06-14T09:21:24;25.40;1.00
41324;DHT22;27073;51.128;4.220;2023-06-14T09:23:49;25.50;1.00
41324;DHT22;27073;51.128;4.220;2023-06-14T09:26:17;25.60;1.00
41324;DHT22;27073;51.128;4.220;2023-06-14T09:28:47;25.70;1.00
41324;DHT22;27073;51.128;4.220;2023-06-14T09:31:18;25.80;99.90
41324;DHT22;27073;51.128;4.220;2023-06-14T09:33:48;25.70;99.90
41324;DHT22;27073;51.128;4.220;2023-06-14T09:36:16;25.80;99.90
41324;DHT22;27073;51.128;4.220;2023-06-14T09:38:55;25.80;99.90
41324;DHT22;27073;51.128;4.220;2023-06-14T09:41:31;25.90;99.90
41324;DHT22;27073;51.128;4.220;2023-06-14T09:43:58;25.80;99.90
41324;DHT22;27073;51.128;4.220;2023-06-14T09:46:27;25.80;99.90
41324;DHT22;27073;51.128;4.220;2023-06-14T09:48:53;25.70;99.90
41324;DHT22;27073;51.128;4.220;2023-06-14T09:51:20;25.80;99.90
41324;DHT22;27073;51.128;4.220;2023-06-14T09:53:49;25.90;99.90
41324;DHT22;27073;51.128;4.220;2023-06-14T09:56:23;26.00;99.90
41324;DHT22;27073;51.128;4.220;2023-06-14T09:58:54;26.20;99.90
41324;DHT22;27073;51.128;4.220;2023-06-14T10:01:22;26.10;99.90
41324;DHT22;27073;51.128;4.220;2023-06-14T10:03:50;26.00;99.90
41324;DHT22;27073;51.128;4.220;2023-06-14T10:06:19;26.10;99.90
41324;DHT22;27073;51.128;4.220;2023-06-14T10:08:47;26.20;99.90
41324;DHT22;27073;51.128;4.220;2023-06-14T10:11:14;26.20;99.90
41324;DHT22;27073;51.128;4.220;2023-06-14T10:13:40;26.30;99.90
41324;DHT22;27073;51.128;4.220;2023-06-14T10:16:32;26.40;91.70
41324;DHT22;27073;51.128;4.220;2023-06-14T10:19:05;26.50;99.90
41324;DHT22;27073;51.128;4.220;2023-06-14T10:24:16;26.60;88.60
41324;DHT22;27073;51.128;4.220;2023-06-14T10:26:54;26.60;85.80
41324;DHT22;27073;51.128;4.220;2023-06-14T10:29:20;26.70;65.20
41324;DHT22;27073;51.128;4.220;2023-06-14T10:31:57;26.90;21.00
41324;DHT22;27073;51.128;4.220;2023-06-14T10:34:29;27.10;43.50
41324;DHT22;27073;51.128;4.220;2023-06-14T10:37:13;27.00;43.80
41324;DHT22;27073;51.128;4.220;2023-06-14T10:39:44;27.10;1.00
41324;DHT22;27073;51.128;4.220;2023-06-14T10:42:11;27.10;1.00
41324;DHT22;27073;51.128;4.220;2023-06-14T10:44:38;27.20;1.00
41324;DHT22;27073;51.128;4.220;2023-06-14T10:47:08;27.40;1.00
41324;DHT22;27073;51.128;4.220;2023-06-14T10:49:46;27.50;99.90
41324;DHT22;27073;51.128;4.220;2023-06-14T10:52:18;27.50;1.00
41324;DHT22;27073;51.128;4.220;2023-06-14T10:55:03;27.60;1.00
41324;DHT22;27073;51.128;4.220;2023-06-14T10:57:30;27.70;99.90
41324;DHT22;27073;51.128;4.220;2023-06-14T11:00:00;27.80;99.90
41324;DHT22;27073;51.128;4.220;2023-06-14T11:05:27;27.90;99.90
41324;DHT22;27073;51.128;4.220;2023-06-14T11:10:38;28.10;99.90
41324;DHT22;27073;51.128;4.220;2023-06-14T11:13:04;28.10;99.90
41324;DHT22;27073;51.128;4.220;2023-06-14T11:15:37;28.30;99.90
41324;DHT22;27073;51.128;4.220;2023-06-14T11:18:05;28.40;99.90
41324;DHT22;27073;51.128;4.220;2023-06-14T11:20:33;28.50;99.90
41324;DHT22;27073;51.128;4.220;2023-06-14T11:22:59;28.50;99.90
41324;DHT22;27073;51.128;4.220;2023-06-14T11:25:26;28.50;99.90
41324;DHT22;27073;51.128;4.220;2023-06-14T11:27:54;28.70;99.90
41324;DHT22;27073;51.128;4.220;2023-06-14T11:30:21;28.60;99.90
41324;DHT22;27073;51.128;4.220;2023-06-14T11:32:51;28.60;99.90
41324;DHT22;27073;51.128;4.220;2023-06-14T11:35:18;28.70;99.90
41324;DHT22;27073;51.128;4.220;2023-06-14T11:37:44;28.70;99.90
41324;DHT22;27073;51.128;4.220;2023-06-14T11:40:11;28.80;99.90
41324;DHT22;27073;51.128;4.220;2023-06-14T11:42:39;28.70;99.90
41324;DHT22;27073;51.128;4.220;2023-06-14T11:45:08;28.80;99.90
41324;DHT22;27073;51.128;4.220;2023-06-14T11:47:39;29.00;99.90
41324;DHT22;27073;51.128;4.220;2023-06-14T11:50:07;29.00;99.90
41324;DHT22;27073;51.128;4.220;2023-06-14T11:52:34;28.90;99.90
41324;DHT22;27073;51.128;4.220;2023-06-14T11:55:02;28.90;99.90
41324;DHT22;27073;51.128;4.220;2023-06-14T11:57:34;29.00;99.90
41324;DHT22;27073;51.128;4.220;2023-06-14T12:00:03;29.20;99.90
41324;DHT22;27073;51.128;4.220;2023-06-14T12:02:37;29.40;99.90
41324;DHT22;27073;51.128;4.220;2023-06-14T12:05:07;29.70;99.90
41324;DHT22;27073;51.128;4.220;2023-06-14T12:07:36;29.80;99.90
41324;DHT22;27073;51.128;4.220;2023-06-14T12:12:35;29.90;99.90
41324;DHT22;27073;51.128;4.220;2023-06-14T12:15:03;29.90;99.90
41324;DHT22;27073;51.128;4.220;2023-06-14T12:17:37;30.00;99.90
41324;DHT22;27073;51.128;4.220;2023-06-14T12:20:08;30.10;99.90
41324;DHT22;27073;51.128;4.220;2023-06-14T12:23:07;30.30;99.90
41324;DHT22;27073;51.128;4.220;2023-06-14T12:25:35;30.40;99.90
41324;DHT22;27073;51.128;4.220;2023-06-14T12:28:07;30.40;99.90
41324;DHT22;27073;51.128;4.220;2023-06-14T12:30:33;30.30;99.90
41324;DHT22;27073;51.128;4.220;2023-06-14T12:32:59;30.40;99.90
41324;DHT22;27073;51.128;4.220;2023-06-14T12:35:26;30.60;99.90
41324;DHT22;27073;51.128;4.220;2023-06-14T12:37:51;30.60;99.90
41324;DHT22;27073;51.128;4.220;2023-06-14T12:40:17;30.60;99.90
41324;DHT22;27073;51.128;4.220;2023-06-14T12:42:44;30.70;99.90
41324;DHT22;27073;51.128;4.220;2023-06-14T12:45:12;30.80;99.90
41324;DHT22;27073;51.128;4.220;2023-06-14T12:47:39;30.90;99.90
41324;DHT22;27073;51.128;4.220;2023-06-14T12:50:05;30.90;99.90
41324;DHT22;27073;51.128;4.220;2023-06-14T12:52:32;31.00;99.90
41324;DHT22;27073;51.128;4.220;2023-06-14T12:55:02;30.90;99.90
41324;DHT22;27073;51.128;4.220;2023-06-14T12:57:28;31.00;99.90
41324;DHT22;27073;51.128;4.220;2023-06-14T12:59:54;31.00;99.90
41324;DHT22;27073;51.128;4.220;2023-06-14T13:02:20;30.90;99.90
41324;DHT22;27073;51.128;4.220;2023-06-14T13:04:50;30.90;99.90
41324;DHT22;27073;51.128;4.220;2023-06-14T13:07:16;30.80;99.90
41324;DHT22;27073;51.128;4.220;2023-06-14T13:09:42;30.80;99.90
41324;DHT22;27073;51.128;4.220;2023-06-14T13:12:10;30.80;99.90
41324;DHT22;27073;51.128;4.220;2023-06-14T13:14:36;30.90;99.90
41324;DHT22;27073;51.128;4.220;2023-06-14T13:17:03;30.90;99.90
41324;DHT22;27073;51.128;4.220;2023-06-14T13:19:28;31.00;99.90
41324;DHT22;27073;51.128;4.220;2023-06-14T13:21:54;31.00;99.90
41324;DHT22;27073;51.128;4.220;2023-06-14T13:24:20;31.10;99.90
41324;DHT22;27073;51.128;4.220;2023-06-14T13:26:45;31.20;99.90
41324;DHT22;27073;51.128;4.220;2023-06-14T13:29:11;31.20;99.90
41324;DHT22;27073;51.128;4.220;2023-06-14T13:31:37;31.10;99.90
41324;DHT22;27073;51.128;4.220;2023-06-14T13:34:02;31.30;99.90
41324;DHT22;27073;51.128;4.220;2023-06-14T13:36:30;31.40;99.90
41324;DHT22;27073;51.128;4.220;2023-06-14T13:38:55;31.30;99.90
41324;DHT22;27073;51.128;4.220;2023-06-14T13:41:21;31.40;99.90
41324;DHT22;27073;51.128;4.220;2023-06-14T13:43:47;31.50;99.90
41324;DHT22;27073;51.128;4.220;2023-06-14T13:46:13;31.80;99.90
41324;DHT22;27073;51.128;4.220;2023-06-14T13:48:38;32.20;99.90
41324;DHT22;27073;51.128;4.220;2023-06-14T13:51:04;32.50;99.90
41324;DHT22;27073;51.128;4.220;2023-06-14T13:53:30;33.00;99.90
41324;DHT22;27073;51.128;4.220;2023-06-14T13:55:56;34.10;99.90
41324;DHT22;27073;51.128;4.220;2023-06-14T13:58:22;34.70;96.00
41324;DHT22;27073;51.128;4.220;2023-06-14T14:00:49;36.10;91.00
41324;DHT22;27073;51.128;4.220;2023-06-14T14:03:15;38.10;84.10
41324;DHT22;27073;51.128;4.220;2023-06-14T14:05:41;39.90;69.30
41324;DHT22;27073;51.128;4.220;2023-06-14T14:08:06;39.80;41.10
41324;DHT22;27073;51.128;4.220;2023-06-14T14:10:32;39.40;24.50
41324;DHT22;27073;51.128;4.220;2023-06-14T14:12:58;41.10;25.80
41324;DHT22;27073;51.128;4.220;2023-06-14T14:15:25;42.40;27.50
41324;DHT22;27073;51.128;4.220;2023-06-14T14:17:51;42.50;7.30
41324;DHT22;27073;51.128;4.220;2023-06-14T14:20:17;42.50;1.50
41324;DHT22;27073;51.128;4.220;2023-06-14T14:22:43;42.30;1.00
41324;DHT22;27073;51.128;4.220;2023-06-14T14:25:09;42.60;1.00
41324;DHT22;27073;51.128;4.220;2023-06-14T14:27:36;43.00;1.00
41324;DHT22;27073;51.128;4.220;2023-06-14T14:30:03;42.30;1.00
41324;DHT22;27073;51.128;4.220;2023-06-14T14:32:29;42.30;1.00
41324;DHT22;27073;51.128;4.220;2023-06-14T14:34:55;42.10;1.00
41324;DHT22;27073;51.128;4.220;2023-06-14T14:37:21;42.70;1.00
41324;DHT22;27073;51.128;4.220;2023-06-14T14:39:46;43.00;1.00
41324;DHT22;27073;51.128;4.220;2023-06-14T14:42:12;42.40;1.00
41324;DHT22;27073;51.128;4.220;2023-06-14T14:44:39;42.30;1.00
41324;DHT22;27073;51.128;4.220;2023-06-14T14:47:05;42.70;1.00
41324;DHT22;27073;51.128;4.220;2023-06-14T14:49:31;43.10;1.00
41324;DHT22;27073;51.128;4.220;2023-06-14T14:51:57;43.50;1.00
41324;DHT22;27073;51.128;4.220;2023-06-14T14:54:23;43.50;1.00
41324;DHT22;27073;51.128;4.220;2023-06-14T14:56:50;44.00;1.00
41324;DHT22;27073;51.128;4.220;2023-06-14T14:59:16;44.70;1.00
41324;DHT22;27073;51.128;4.220;2023-06-14T15:01:42;43.90;1.00
41324;DHT22;27073;51.128;4.220;2023-06-14T15:04:08;43.20;1.00
41324;DHT22;27073;51.128;4.220;2023-06-14T15:06:34;44.00;1.00
41324;DHT22;27073;51.128;4.220;2023-06-14T15:09:04;43.70;1.00
41324;DHT22;27073;51.128;4.220;2023-06-14T15:11:30;42.80;1.00
41324;DHT22;27073;51.128;4.220;2023-06-14T15:13:55;42.80;1.00
41324;DHT22;27073;51.128;4.220;2023-06-14T15:16:21;43.00;1.00
41324;DHT22;27073;51.128;4.220;2023-06-14T15:18:47;43.70;1.00
41324;DHT22;27073;51.128;4.220;2023-06-14T15:21:12;42.70;1.00
41324;DHT22;27073;51.128;4.220;2023-06-14T15:23:38;42.70;1.00
41324;DHT22;27073;51.128;4.220;2023-06-14T15:26:04;43.10;1.00
41324;DHT22;27073;51.128;4.220;2023-06-14T15:28:30;43.10;1.00
41324;DHT22;27073;51.128;4.220;2023-06-14T15:30:59;43.30;1.00
41324;DHT22;27073;51.128;4.220;2023-06-14T15:33:25;42.60;1.00
41324;DHT22;27073;51.128;4.220;2023-06-14T15:35:50;43.40;1.00
41324;DHT22;27073;51.128;4.220;2023-06-14T15:38:16;43.70;1.00
41324;DHT22;27073;51.128;4.220;2023-06-14T15:40:42;43.90;1.00
41324;DHT22;27073;51.128;4.220;2023-06-14T15:43:08;44.00;1.00
41324;DHT22;27073;51.128;4.220;2023-06-14T15:45:33;44.20;1.00
41324;DHT22;27073;51.128;4.220;2023-06-14T15:47:59;44.20;1.00
41324;DHT22;27073;51.128;4.220;2023-06-14T15:50:26;44.10;1.00